createdAt,value
2019-01-30T00:00:39.176Z,949.31
2019-01-30T00:01:39.239Z,949.30
2019-01-30T00:02:39.230Z,949.25
2019-01-30T00:03:39.263Z,949.24
2019-01-30T00:04:40.148Z,949.22
2019-01-30T00:05:39.366Z,949.17
2019-01-30T00:06:39.391Z,949.11
2019-01-30T00:07:39.410Z,949.12
2019-01-30T00:08:39.451Z,949.07
2019-01-30T00:09:39.491Z,949.08
2019-01-30T00:10:39.546Z,949.03
2019-01-30T00:11:39.580Z,949.01
2019-01-30T00:12:39.601Z,948.99
2019-01-30T00:13:39.649Z,949.04
2019-01-30T00:14:39.683Z,949.01
2019-01-30T00:15:39.818Z,949.01
2019-01-30T00:16:39.765Z,948.96
2019-01-30T00:17:39.794Z,948.93
2019-01-30T00:18:39.823Z,948.87
2019-01-30T00:19:39.863Z,948.88
2019-01-30T00:20:39.904Z,948.86
2019-01-30T00:21:39.958Z,948.82
2019-01-30T00:22:40.025Z,948.81
2019-01-30T00:23:40.011Z,948.77
2019-01-30T00:24:40.053Z,948.75
2019-01-30T00:25:40.093Z,948.79
2019-01-30T00:26:40.154Z,948.73
2019-01-30T00:27:40.164Z,948.72
2019-01-30T00:28:40.297Z,948.70
2019-01-30T00:29:40.241Z,948.66
2019-01-30T00:30:40.273Z,948.63
2019-01-30T00:31:40.418Z,948.58
2019-01-30T00:32:40.357Z,948.60
2019-01-30T00:33:41.144Z,948.64
2019-01-30T00:34:40.423Z,948.60
2019-01-30T00:35:40.463Z,948.57
2019-01-30T00:36:40.520Z,948.61
2019-01-30T00:37:40.560Z,948.59
2019-01-30T00:38:40.577Z,948.62
2019-01-30T00:39:40.614Z,948.66
2019-01-30T00:40:40.651Z,948.63
2019-01-30T00:41:40.694Z,948.65
2019-01-30T00:42:40.750Z,948.65
2019-01-30T00:43:40.880Z,948.64
2019-01-30T00:44:40.811Z,948.62
2019-01-30T00:45:40.842Z,948.62
2019-01-30T00:46:40.880Z,948.59
2019-01-30T00:47:40.934Z,948.52
2019-01-30T00:48:40.976Z,948.52
2019-01-30T00:49:40.995Z,948.55
2019-01-30T00:50:41.028Z,948.53
2019-01-30T00:51:41.068Z,948.53
2019-01-30T00:52:41.112Z,948.52
2019-01-30T00:53:41.175Z,948.46
2019-01-30T00:54:41.185Z,948.43
2019-01-30T00:55:41.641Z,948.43
2019-01-30T00:56:41.258Z,948.42
2019-01-30T00:57:41.296Z,948.48
2019-01-30T00:58:41.354Z,948.44
2019-01-30T00:59:41.484Z,948.52
2019-01-30T01:00:41.410Z,948.53
2019-01-30T01:01:41.446Z,948.48
2019-01-30T01:02:41.486Z,948.47
2019-01-30T01:03:41.547Z,948.46
2019-01-30T01:04:41.573Z,948.49
2019-01-30T01:05:41.601Z,948.44
2019-01-30T01:06:41.678Z,948.43
2019-01-30T01:07:41.678Z,948.42
2019-01-30T01:08:41.743Z,948.43
2019-01-30T01:09:41.753Z,948.38
2019-01-30T01:10:41.798Z,948.34
2019-01-30T01:11:41.839Z,948.33
2019-01-30T01:12:41.869Z,948.24
2019-01-30T01:13:42.036Z,948.28
2019-01-30T01:14:41.948Z,948.30
2019-01-30T01:15:41.988Z,948.30
2019-01-30T01:16:42.037Z,948.29
2019-01-30T01:17:42.064Z,948.23
2019-01-30T01:18:42.116Z,948.17
2019-01-30T01:19:42.134Z,948.24
2019-01-30T01:20:42.232Z,948.23
2019-01-30T01:21:42.664Z,948.26
2019-01-30T01:22:42.255Z,948.23
2019-01-30T01:23:42.330Z,948.21
2019-01-30T01:24:42.372Z,948.22
2019-01-30T01:25:42.368Z,948.19
2019-01-30T01:26:42.413Z,948.19
2019-01-30T01:27:42.446Z,948.16
2019-01-30T01:28:42.484Z,948.15
2019-01-30T01:29:42.540Z,948.15
2019-01-30T01:30:42.561Z,948.08
2019-01-30T01:31:42.624Z,948.05
2019-01-30T01:32:42.635Z,948.08
2019-01-30T01:33:42.671Z,948.10
2019-01-30T01:34:42.779Z,948.02
2019-01-30T01:35:42.754Z,947.99
2019-01-30T01:36:42.789Z,947.98
2019-01-30T01:37:42.836Z,947.96
2019-01-30T01:38:42.866Z,947.97
2019-01-30T01:39:42.925Z,947.92
2019-01-30T01:40:42.953Z,947.88
2019-01-30T01:41:42.987Z,947.87
2019-01-30T01:42:43.021Z,947.85
2019-01-30T01:43:43.067Z,947.82
2019-01-30T01:44:43.118Z,947.81
2019-01-30T01:45:43.166Z,947.86
2019-01-30T01:46:43.176Z,947.87
2019-01-30T01:47:43.225Z,947.86
2019-01-30T01:48:43.332Z,947.83
2019-01-30T01:49:43.295Z,947.87
2019-01-30T01:50:43.350Z,947.78
2019-01-30T01:51:43.369Z,947.79
2019-01-30T01:52:43.411Z,947.76
2019-01-30T01:53:44.137Z,947.68
2019-01-30T01:54:43.485Z,947.69
2019-01-30T01:55:43.608Z,947.67
2019-01-30T01:56:43.569Z,947.64
2019-01-30T01:57:43.615Z,947.62
2019-01-30T01:58:43.640Z,947.48
2019-01-30T01:59:43.683Z,947.56
2019-01-30T02:00:43.745Z,947.53
2019-01-30T02:01:43.764Z,947.50
2019-01-30T02:02:43.828Z,947.48
2019-01-30T02:03:43.842Z,947.48
2019-01-30T02:04:43.877Z,947.47
2019-01-30T02:05:43.945Z,947.43
2019-01-30T02:06:43.976Z,947.43
2019-01-30T02:07:43.992Z,947.44
2019-01-30T02:08:44.034Z,947.44
2019-01-30T02:09:44.083Z,947.44
2019-01-30T02:10:44.129Z,947.39
2019-01-30T02:11:44.150Z,947.42
2019-01-30T02:12:44.186Z,947.39
2019-01-30T02:13:44.226Z,947.43
2019-01-30T02:14:44.270Z,947.40
2019-01-30T02:15:44.322Z,947.42
2019-01-30T02:16:44.362Z,947.41
2019-01-30T02:17:44.383Z,947.35
2019-01-30T02:18:44.424Z,947.41
2019-01-30T02:19:44.461Z,947.40
2019-01-30T02:20:45.135Z,947.44
2019-01-30T02:21:44.573Z,947.42
2019-01-30T02:22:44.617Z,947.45
2019-01-30T02:23:44.619Z,947.47
2019-01-30T02:24:44.658Z,947.42
2019-01-30T02:25:44.785Z,947.36
2019-01-30T02:26:44.757Z,947.41
2019-01-30T02:27:44.775Z,947.42
2019-01-30T02:28:44.815Z,947.39
2019-01-30T02:29:44.852Z,947.42
2019-01-30T02:30:47.466Z,947.36
2019-01-30T02:31:44.948Z,947.35
2019-01-30T02:32:45.091Z,947.33
2019-01-30T02:33:45.009Z,947.35
2019-01-30T02:34:45.635Z,947.35
2019-01-30T02:35:45.097Z,947.36
2019-01-30T02:36:45.157Z,947.37
2019-01-30T02:37:45.166Z,947.31
2019-01-30T02:38:45.204Z,947.33
2019-01-30T02:39:45.368Z,947.26
2019-01-30T02:40:45.282Z,947.23
2019-01-30T02:41:45.404Z,947.12
2019-01-30T02:42:46.139Z,947.19
2019-01-30T02:43:45.410Z,947.22
2019-01-30T02:44:45.438Z,947.21
2019-01-30T02:45:45.478Z,947.22
2019-01-30T02:46:45.576Z,947.18
2019-01-30T02:47:45.579Z,947.21
2019-01-30T02:48:45.597Z,947.23
2019-01-30T02:49:45.643Z,947.19
2019-01-30T02:50:45.690Z,947.23
2019-01-30T02:51:45.720Z,947.17
2019-01-30T02:52:45.774Z,947.25
2019-01-30T02:53:45.795Z,947.18
2019-01-30T02:54:45.854Z,947.13
2019-01-30T02:55:45.874Z,947.13
2019-01-30T02:56:45.940Z,947.09
2019-01-30T02:57:45.958Z,947.19
2019-01-30T02:58:46.010Z,947.19
2019-01-30T02:59:46.029Z,947.15
2019-01-30T03:00:46.180Z,947.07
2019-01-30T03:01:46.108Z,947.19
2019-01-30T03:02:46.633Z,947.18
2019-01-30T03:03:46.207Z,947.07
2019-01-30T03:04:46.225Z,947.06
2019-01-30T03:05:46.279Z,947.10
2019-01-30T03:06:46.307Z,947.13
2019-01-30T03:07:46.460Z,947.17
2019-01-30T03:08:46.407Z,947.20
2019-01-30T03:09:46.425Z,947.17
2019-01-30T03:10:46.469Z,947.08
2019-01-30T03:11:46.529Z,947.11
2019-01-30T03:12:46.544Z,947.17
2019-01-30T03:13:46.609Z,947.11
2019-01-30T03:14:46.694Z,947.17
2019-01-30T03:15:46.667Z,947.18
2019-01-30T03:16:46.710Z,947.21
2019-01-30T03:17:46.833Z,947.20
2019-01-30T03:18:46.802Z,947.24
2019-01-30T03:19:46.823Z,947.19
2019-01-30T03:20:46.872Z,947.21
2019-01-30T03:21:46.903Z,947.18
2019-01-30T03:22:46.946Z,947.19
2019-01-30T03:23:47.142Z,947.19
2019-01-30T03:24:47.034Z,947.17
2019-01-30T03:25:47.063Z,947.16
2019-01-30T03:26:47.103Z,947.10
2019-01-30T03:27:47.149Z,947.11
2019-01-30T03:28:47.205Z,947.13
2019-01-30T03:29:47.252Z,947.12
2019-01-30T03:30:47.316Z,947.10
2019-01-30T03:31:47.303Z,947.06
2019-01-30T03:32:47.346Z,947.14
2019-01-30T03:33:47.380Z,947.06
2019-01-30T03:34:48.131Z,947.10
2019-01-30T03:35:47.469Z,947.07
2019-01-30T03:36:47.510Z,947.10
2019-01-30T03:37:47.597Z,947.02
2019-01-30T03:38:47.576Z,946.98
2019-01-30T03:39:47.638Z,947.11
2019-01-30T03:40:47.662Z,947.11
2019-01-30T03:41:47.700Z,946.99
2019-01-30T03:42:47.742Z,947.06
2019-01-30T03:43:47.778Z,947.05
2019-01-30T03:44:47.846Z,947.13
2019-01-30T03:45:47.862Z,947.03
2019-01-30T03:46:47.898Z,947.14
2019-01-30T03:47:47.966Z,947.04
2019-01-30T03:48:47.975Z,947.01
2019-01-30T03:49:48.034Z,946.97
2019-01-30T03:50:48.071Z,947.07
2019-01-30T03:51:48.095Z,947.00
2019-01-30T03:52:49.631Z,947.10
2019-01-30T03:53:48.176Z,947.09
2019-01-30T03:54:48.218Z,947.04
2019-01-30T03:55:48.363Z,946.98
2019-01-30T03:56:48.295Z,947.02
2019-01-30T03:57:48.381Z,947.04
2019-01-30T03:58:48.372Z,947.07
2019-01-30T03:59:48.411Z,947.04
2019-01-30T04:00:48.475Z,947.02
2019-01-30T04:01:48.497Z,946.96
2019-01-30T04:02:48.642Z,946.96
2019-01-30T04:03:48.573Z,946.88
2019-01-30T04:04:48.611Z,946.87
2019-01-30T04:05:48.727Z,946.89
2019-01-30T04:06:48.694Z,946.92
2019-01-30T04:07:48.732Z,946.89
2019-01-30T04:08:49.634Z,946.88
2019-01-30T04:09:48.849Z,946.86
2019-01-30T04:10:48.878Z,946.86
2019-01-30T04:11:48.920Z,946.86
2019-01-30T04:12:48.931Z,946.85
2019-01-30T04:13:48.973Z,946.83
2019-01-30T04:14:49.013Z,946.88
2019-01-30T04:15:49.053Z,946.89
2019-01-30T04:16:49.112Z,946.92
2019-01-30T04:17:49.144Z,946.79
2019-01-30T04:18:49.175Z,946.85
2019-01-30T04:19:49.227Z,946.84
2019-01-30T04:20:49.264Z,946.85
2019-01-30T04:21:49.316Z,946.89
2019-01-30T04:22:49.347Z,946.90
2019-01-30T04:23:49.387Z,946.88
2019-01-30T04:24:49.418Z,946.90
2019-01-30T04:25:49.463Z,946.88
2019-01-30T04:26:49.522Z,946.85
2019-01-30T04:27:49.580Z,946.85
2019-01-30T04:28:49.592Z,946.84
2019-01-30T04:29:49.630Z,946.83
2019-01-30T04:30:49.675Z,946.85
2019-01-30T04:31:49.725Z,946.90
2019-01-30T04:32:49.775Z,946.94
2019-01-30T04:33:49.783Z,946.90
2019-01-30T04:34:49.826Z,946.92
2019-01-30T04:35:49.871Z,946.88
2019-01-30T04:36:49.916Z,946.90
2019-01-30T04:37:50.002Z,946.96
2019-01-30T04:38:49.995Z,946.92
2019-01-30T04:39:50.038Z,946.92
2019-01-30T04:40:50.073Z,946.89
2019-01-30T04:41:50.115Z,946.91
2019-01-30T04:42:50.173Z,946.89
2019-01-30T04:43:50.196Z,946.91
2019-01-30T04:44:50.241Z,946.90
2019-01-30T04:45:50.272Z,946.85
2019-01-30T04:46:50.321Z,946.92
2019-01-30T04:47:50.375Z,946.91
2019-01-30T04:48:50.394Z,946.88
2019-01-30T04:49:50.435Z,946.93
2019-01-30T04:50:50.479Z,946.87
2019-01-30T04:51:50.516Z,946.86
2019-01-30T04:52:50.599Z,946.89
2019-01-30T04:53:50.639Z,946.91
2019-01-30T04:54:50.638Z,946.80
2019-01-30T04:55:50.685Z,946.84
2019-01-30T04:56:50.719Z,946.80
2019-01-30T04:57:51.093Z,946.82
2019-01-30T04:58:50.826Z,946.79
2019-01-30T04:59:50.865Z,946.78
2019-01-30T05:00:50.884Z,946.78
2019-01-30T05:01:50.920Z,946.78
2019-01-30T05:02:50.959Z,946.74
2019-01-30T05:03:51.025Z,946.79
2019-01-30T05:04:51.047Z,946.83
2019-01-30T05:05:51.082Z,946.80
2019-01-30T05:06:51.123Z,946.75
2019-01-30T05:07:51.166Z,946.72
2019-01-30T05:08:51.221Z,946.66
2019-01-30T05:09:51.272Z,946.62
2019-01-30T05:10:51.286Z,946.61
2019-01-30T05:11:51.325Z,946.58
2019-01-30T05:12:51.364Z,946.61
2019-01-30T05:13:51.519Z,946.53
2019-01-30T05:14:51.471Z,946.53
2019-01-30T05:15:51.483Z,946.58
2019-01-30T05:16:51.527Z,946.59
2019-01-30T05:17:51.562Z,946.64
2019-01-30T05:18:51.601Z,946.62
2019-01-30T05:19:51.666Z,946.64
2019-01-30T05:20:51.681Z,946.67
2019-01-30T05:21:51.738Z,946.66
2019-01-30T05:22:51.764Z,946.68
2019-01-30T05:23:51.806Z,946.64
2019-01-30T05:24:51.869Z,946.63
2019-01-30T05:25:51.883Z,946.67
2019-01-30T05:26:51.922Z,946.71
2019-01-30T05:27:51.962Z,946.73
2019-01-30T05:28:52.040Z,946.70
2019-01-30T05:29:52.077Z,946.67
2019-01-30T05:30:52.079Z,946.70
2019-01-30T05:32:00.845Z,946.75
2019-01-30T05:32:52.162Z,946.80
2019-01-30T05:33:52.207Z,946.76
2019-01-30T05:34:52.260Z,946.74
2019-01-30T05:35:52.299Z,946.73
2019-01-30T05:36:52.325Z,946.78
2019-01-30T05:37:52.359Z,946.76
2019-01-30T05:38:52.393Z,946.79
2019-01-30T05:39:52.499Z,946.74
2019-01-30T05:40:52.502Z,946.73
2019-01-30T05:41:52.522Z,946.72
2019-01-30T05:42:52.557Z,946.76
2019-01-30T05:43:52.603Z,946.72
2019-01-30T05:44:52.636Z,946.75
2019-01-30T05:45:52.694Z,946.80
2019-01-30T05:46:52.780Z,946.79
2019-01-30T05:47:52.763Z,946.80
2019-01-30T05:48:52.794Z,946.83
2019-01-30T05:49:52.833Z,946.88
2019-01-30T05:50:52.890Z,946.82
2019-01-30T05:51:52.909Z,946.81
2019-01-30T05:52:52.953Z,946.82
2019-01-30T05:53:53.086Z,946.86
2019-01-30T05:54:53.632Z,946.84
2019-01-30T05:55:53.104Z,946.92
2019-01-30T05:56:53.108Z,946.93
2019-01-30T05:57:53.148Z,946.90
2019-01-30T05:58:53.195Z,946.84
2019-01-30T05:59:53.229Z,946.89
2019-01-30T06:00:53.355Z,946.80
2019-01-30T06:01:53.304Z,946.81
2019-01-30T06:02:53.344Z,946.85
2019-01-30T06:03:53.393Z,946.89
2019-01-30T06:04:53.432Z,946.92
2019-01-30T06:05:53.493Z,946.87
2019-01-30T06:06:53.517Z,946.90
2019-01-30T06:07:53.537Z,946.86
2019-01-30T06:08:53.583Z,946.86
2019-01-30T06:09:53.616Z,946.89
2019-01-30T06:10:53.654Z,946.86
2019-01-30T06:11:53.714Z,946.91
2019-01-30T06:12:53.851Z,946.92
2019-01-30T06:13:53.775Z,946.92
2019-01-30T06:14:53.819Z,947.02
2019-01-30T06:15:53.851Z,947.10
2019-01-30T06:16:53.905Z,947.14
2019-01-30T06:17:53.949Z,947.15
2019-01-30T06:18:53.974Z,947.24
2019-01-30T06:19:54.003Z,947.28
2019-01-30T06:20:54.043Z,947.32
2019-01-30T06:21:54.121Z,947.38
2019-01-30T06:22:54.121Z,947.42
2019-01-30T06:23:54.249Z,947.50
2019-01-30T06:24:54.194Z,947.60
2019-01-30T06:25:54.251Z,947.60
2019-01-30T06:26:54.293Z,947.64
2019-01-30T06:27:55.122Z,947.66
2019-01-30T06:28:54.420Z,947.73
2019-01-30T06:29:54.391Z,947.75
2019-01-30T06:30:54.434Z,947.81
2019-01-30T06:31:54.502Z,947.88
2019-01-30T06:32:54.506Z,947.89
2019-01-30T06:33:54.549Z,947.91
2019-01-30T06:34:56.669Z,947.95
2019-01-30T06:35:54.622Z,948.04
2019-01-30T06:36:55.623Z,948.00
2019-01-30T06:37:54.727Z,948.02
2019-01-30T06:38:54.742Z,948.00
2019-01-30T06:39:54.778Z,948.01
2019-01-30T06:40:54.819Z,948.01
2019-01-30T06:41:54.849Z,948.04
2019-01-30T06:42:55.423Z,948.06
2019-01-30T06:43:55.626Z,948.08
2019-01-30T06:44:54.970Z,948.13
2019-01-30T06:45:55.921Z,948.17
2019-01-30T06:46:55.039Z,948.21
2019-01-30T06:47:55.104Z,948.24
2019-01-30T06:48:56.286Z,948.22
2019-01-30T06:49:55.163Z,948.24
2019-01-30T06:50:55.196Z,948.28
2019-01-30T06:51:56.166Z,948.28
2019-01-30T06:52:55.290Z,948.36
2019-01-30T06:53:56.123Z,948.39
2019-01-30T06:54:55.348Z,948.39
2019-01-30T06:55:55.387Z,948.41
2019-01-30T06:56:55.422Z,948.45
2019-01-30T06:57:55.485Z,948.49
2019-01-30T06:58:56.119Z,948.53
2019-01-30T06:59:55.536Z,948.54
2019-01-30T07:00:55.577Z,948.54
2019-01-30T07:01:55.621Z,948.55
2019-01-30T07:02:55.651Z,948.57
2019-01-30T07:03:55.707Z,948.64
2019-01-30T07:04:55.728Z,948.60
2019-01-30T07:05:55.818Z,948.63
2019-01-30T07:06:55.804Z,948.67
2019-01-30T07:07:55.843Z,948.70
2019-01-30T07:08:55.897Z,948.70
2019-01-30T07:09:55.926Z,948.71
2019-01-30T07:10:55.961Z,948.75
2019-01-30T07:11:55.997Z,948.79
2019-01-30T07:12:56.061Z,948.80
2019-01-30T07:13:56.120Z,948.81
2019-01-30T07:14:56.108Z,948.84
2019-01-30T07:15:56.145Z,948.85
2019-01-30T07:16:56.238Z,948.87
2019-01-30T07:17:56.221Z,948.88
2019-01-30T07:18:56.299Z,948.89
2019-01-30T07:19:56.297Z,948.88
2019-01-30T07:20:56.337Z,948.89
2019-01-30T07:21:56.934Z,948.90
2019-01-30T07:22:56.415Z,948.91
2019-01-30T07:23:56.472Z,948.93
2019-01-30T07:24:56.511Z,948.93
2019-01-30T07:25:56.531Z,948.93
2019-01-30T07:26:56.573Z,948.95
2019-01-30T07:27:56.600Z,948.97
2019-01-30T07:28:56.648Z,949.01
2019-01-30T07:29:56.707Z,948.99
2019-01-30T07:30:56.717Z,948.97
2019-01-30T07:31:57.151Z,948.94
2019-01-30T07:32:56.793Z,948.99
2019-01-30T07:33:56.833Z,949.02
2019-01-30T07:34:56.894Z,949.05
2019-01-30T07:35:57.619Z,949.05
2019-01-30T07:36:57.014Z,949.09
2019-01-30T07:37:58.638Z,949.13
2019-01-30T07:38:57.060Z,949.12
2019-01-30T07:39:57.104Z,949.14
2019-01-30T07:40:57.111Z,949.14
2019-01-30T07:41:57.158Z,949.14
2019-01-30T07:42:57.177Z,949.18
2019-01-30T07:43:57.223Z,949.28
2019-01-30T07:44:57.274Z,949.31
2019-01-30T07:45:57.354Z,949.32
2019-01-30T07:46:57.353Z,949.34
2019-01-30T07:47:57.375Z,949.33
2019-01-30T07:48:57.415Z,949.33
2019-01-30T07:49:57.497Z,949.31
2019-01-30T07:50:57.505Z,949.31
2019-01-30T07:51:57.535Z,949.36
2019-01-30T07:52:58.966Z,949.42
2019-01-30T07:53:57.611Z,949.43
2019-01-30T07:54:57.683Z,949.50
2019-01-30T07:55:57.682Z,949.53
2019-01-30T07:56:57.722Z,949.57
2019-01-30T07:57:57.774Z,949.51
2019-01-30T07:58:57.817Z,949.55
2019-01-30T07:59:57.895Z,949.55
2019-01-30T08:00:57.903Z,949.50
2019-01-30T08:01:57.921Z,949.56
2019-01-30T08:02:57.953Z,949.57
2019-01-30T08:03:58.001Z,949.58
2019-01-30T08:04:58.040Z,949.54
2019-01-30T08:05:58.091Z,949.52
2019-01-30T08:06:58.187Z,949.55
2019-01-30T08:07:58.162Z,949.55
2019-01-30T08:08:58.187Z,949.57
2019-01-30T08:09:58.225Z,949.62
2019-01-30T08:10:58.291Z,949.65
2019-01-30T08:11:58.304Z,949.59
2019-01-30T08:12:58.348Z,949.60
2019-01-30T08:13:58.387Z,949.63
2019-01-30T08:14:58.424Z,949.61
2019-01-30T08:15:58.485Z,949.64
2019-01-30T08:16:58.498Z,949.67
2019-01-30T08:17:58.541Z,949.69
2019-01-30T08:18:58.580Z,949.70
2019-01-30T08:19:58.623Z,949.75
2019-01-30T08:20:58.678Z,949.76
2019-01-30T08:21:58.715Z,949.80
2019-01-30T08:22:58.740Z,949.81
2019-01-30T08:23:58.832Z,949.85
2019-01-30T08:24:58.862Z,949.85
2019-01-30T08:25:58.910Z,949.81
2019-01-30T08:26:58.968Z,949.85
2019-01-30T08:27:59.265Z,949.83
2019-01-30T08:28:59.006Z,949.81
2019-01-30T08:29:59.207Z,949.80
2019-01-30T08:30:59.104Z,949.82
2019-01-30T08:31:59.934Z,949.81
2019-01-30T08:33:04.754Z,949.81
2019-01-30T08:33:59.165Z,949.80
2019-01-30T08:34:59.207Z,949.79
2019-01-30T08:35:59.262Z,949.81
2019-01-30T08:36:59.455Z,949.80
2019-01-30T08:37:59.341Z,949.82
2019-01-30T08:38:59.368Z,949.77
2019-01-30T08:39:59.402Z,949.79
2019-01-30T08:40:59.443Z,949.82
2019-01-30T08:41:59.486Z,949.83
2019-01-30T08:42:59.542Z,949.89
2019-01-30T08:43:59.568Z,949.91
2019-01-30T08:44:59.610Z,949.95
2019-01-30T08:45:59.647Z,949.88
2019-01-30T08:46:59.720Z,949.88
2019-01-30T08:47:59.733Z,949.85
2019-01-30T08:48:59.772Z,949.85
2019-01-30T08:49:59.815Z,949.87
2019-01-30T08:50:59.856Z,949.94
2019-01-30T08:51:59.931Z,949.90
2019-01-30T08:52:59.945Z,949.93
2019-01-30T08:53:59.980Z,949.87
2019-01-30T08:55:00.017Z,949.96
2019-01-30T08:56:00.056Z,949.95
2019-01-30T08:57:00.131Z,949.99
2019-01-30T08:58:00.158Z,949.93
2019-01-30T08:59:00.179Z,949.96
2019-01-30T09:00:00.311Z,949.94
2019-01-30T09:01:00.272Z,949.94
2019-01-30T09:02:00.317Z,949.94
2019-01-30T09:03:00.371Z,949.95
2019-01-30T09:04:00.409Z,949.94
2019-01-30T09:05:00.436Z,950.00
2019-01-30T09:06:00.475Z,949.99
2019-01-30T09:07:00.517Z,949.99
2019-01-30T09:08:00.589Z,949.98
2019-01-30T09:09:00.608Z,950.01
2019-01-30T09:10:00.632Z,950.00
2019-01-30T09:11:00.678Z,949.99
2019-01-30T09:12:00.711Z,950.06
2019-01-30T09:13:00.774Z,950.03
2019-01-30T09:14:00.798Z,950.04
2019-01-30T09:15:00.851Z,950.03
2019-01-30T09:16:00.880Z,950.08
2019-01-30T09:17:00.922Z,950.03
2019-01-30T09:18:00.983Z,950.11
2019-01-30T09:19:01.020Z,950.09
2019-01-30T09:20:01.040Z,950.10
2019-01-30T09:21:01.097Z,950.11
2019-01-30T09:22:01.125Z,950.10
2019-01-30T09:23:01.193Z,950.14
2019-01-30T09:24:02.111Z,950.15
2019-01-30T09:25:01.247Z,950.18
2019-01-30T09:26:01.299Z,950.12
2019-01-30T09:27:01.335Z,950.23
2019-01-30T09:28:01.387Z,950.21
2019-01-30T09:29:01.438Z,950.21
2019-01-30T09:30:01.472Z,950.26
2019-01-30T09:31:01.573Z,950.22
2019-01-30T09:32:01.539Z,950.26
2019-01-30T09:33:01.614Z,950.29
2019-01-30T09:34:01.635Z,950.34
2019-01-30T09:35:01.658Z,950.35
2019-01-30T09:36:01.696Z,950.31
2019-01-30T09:37:01.761Z,950.40
2019-01-30T09:38:01.896Z,950.42
2019-01-30T09:39:01.860Z,950.45
2019-01-30T09:40:01.862Z,950.47
2019-01-30T09:41:01.903Z,950.43
2019-01-30T09:42:01.958Z,950.45
2019-01-30T09:43:01.993Z,950.46
2019-01-30T09:44:02.058Z,950.48
2019-01-30T09:45:02.113Z,950.50
2019-01-30T09:46:02.214Z,950.52
2019-01-30T09:47:02.664Z,950.55
2019-01-30T09:48:02.204Z,950.53
2019-01-30T09:49:02.248Z,950.55
2019-01-30T09:50:02.304Z,950.52
2019-01-30T09:51:02.334Z,950.56
2019-01-30T09:52:02.367Z,950.59
2019-01-30T09:53:02.406Z,950.58
2019-01-30T09:54:02.454Z,950.57
2019-01-30T09:55:02.513Z,950.61
2019-01-30T09:56:02.532Z,950.59
2019-01-30T09:57:02.590Z,950.59
2019-01-30T09:58:02.619Z,950.59
2019-01-30T09:59:02.661Z,950.60
2019-01-30T10:00:02.739Z,950.64
2019-01-30T10:01:02.753Z,950.61
2019-01-30T10:02:02.795Z,950.61
2019-01-30T10:03:02.829Z,950.57
2019-01-30T10:04:02.885Z,950.66
2019-01-30T10:05:02.948Z,950.74
2019-01-30T10:06:03.005Z,950.72
2019-01-30T10:07:03.039Z,950.77
2019-01-30T10:08:03.050Z,950.81
2019-01-30T10:09:03.089Z,950.76
2019-01-30T10:10:03.172Z,950.77
2019-01-30T10:11:03.194Z,950.78
2019-01-30T10:12:03.213Z,950.83
2019-01-30T10:13:03.275Z,950.86
2019-01-30T10:14:03.300Z,950.81
2019-01-30T10:15:03.416Z,950.81
2019-01-30T10:16:03.405Z,950.88
2019-01-30T10:17:03.432Z,950.81
2019-01-30T10:18:03.487Z,950.84
2019-01-30T10:19:04.113Z,950.93
2019-01-30T10:20:03.561Z,950.84
2019-01-30T10:21:03.628Z,950.97
2019-01-30T10:22:03.690Z,950.93
2019-01-30T10:23:03.699Z,951.00
2019-01-30T10:24:03.735Z,950.98
2019-01-30T10:25:03.780Z,951.03
2019-01-30T10:26:03.848Z,950.99
2019-01-30T10:27:03.881Z,951.03
2019-01-30T10:28:03.909Z,951.02
2019-01-30T10:29:04.000Z,951.06
2019-01-30T10:30:04.926Z,951.05
2019-01-30T10:31:04.057Z,951.03
2019-01-30T10:32:04.091Z,951.04
2019-01-30T10:33:04.136Z,951.08
2019-01-30T10:34:04.176Z,951.08
2019-01-30T10:35:04.216Z,951.13
2019-01-30T10:36:04.279Z,951.10
2019-01-30T10:37:04.304Z,951.05
2019-01-30T10:38:05.113Z,951.13
2019-01-30T10:39:04.403Z,951.17
2019-01-30T10:40:04.439Z,951.14
2019-01-30T10:41:04.508Z,951.21
2019-01-30T10:42:04.558Z,951.16
2019-01-30T10:43:04.598Z,951.28
2019-01-30T10:44:04.615Z,951.20
2019-01-30T10:45:04.662Z,951.19
2019-01-30T10:46:04.726Z,951.14
2019-01-30T10:47:04.765Z,951.09
2019-01-30T10:48:04.806Z,951.28
2019-01-30T10:49:04.841Z,951.21
2019-01-30T10:50:04.901Z,951.07
2019-01-30T10:51:07.216Z,951.25
2019-01-30T10:52:05.005Z,951.13
2019-01-30T10:53:05.026Z,951.15
2019-01-30T10:54:05.066Z,951.18
2019-01-30T10:55:05.100Z,951.19
2019-01-30T10:56:05.148Z,951.17
2019-01-30T10:57:06.117Z,951.12
2019-01-30T10:58:05.264Z,951.20
2019-01-30T10:59:05.287Z,951.21
2019-01-30T11:00:05.328Z,951.15
2019-01-30T11:01:05.365Z,951.22
2019-01-30T11:02:05.432Z,951.16
2019-01-30T11:03:05.471Z,951.29
2019-01-30T11:04:05.495Z,951.15
2019-01-30T11:05:05.555Z,951.19
2019-01-30T11:06:05.681Z,951.17
2019-01-30T11:07:05.662Z,951.24
2019-01-30T11:08:05.775Z,951.19
2019-01-30T11:09:05.724Z,951.08
2019-01-30T11:10:05.759Z,951.15
2019-01-30T11:11:08.108Z,951.30
2019-01-30T11:12:05.844Z,951.39
2019-01-30T11:13:05.906Z,951.35
2019-01-30T11:14:05.943Z,951.23
2019-01-30T11:15:05.980Z,951.35
2019-01-30T11:16:06.019Z,951.35
2019-01-30T11:17:08.543Z,951.28
2019-01-30T11:18:06.133Z,951.27
2019-01-30T11:19:06.156Z,951.36
2019-01-30T11:20:06.189Z,951.24
2019-01-30T11:21:06.258Z,951.11
2019-01-30T11:22:06.283Z,951.44
2019-01-30T11:23:06.360Z,951.43
2019-01-30T11:24:06.373Z,951.34
2019-01-30T11:25:07.142Z,951.27
2019-01-30T11:26:06.452Z,951.24
2019-01-30T11:27:06.493Z,951.32
2019-01-30T11:28:06.562Z,951.35
2019-01-30T11:29:06.585Z,951.20
2019-01-30T11:30:06.626Z,951.34
2019-01-30T11:31:06.693Z,951.31
2019-01-30T11:32:06.733Z,951.36
2019-01-30T11:33:06.787Z,951.27
2019-01-30T11:34:08.626Z,951.39
2019-01-30T11:35:06.876Z,951.32
2019-01-30T11:36:06.891Z,951.37
2019-01-30T11:37:06.943Z,951.38
2019-01-30T11:38:08.740Z,951.32
2019-01-30T11:39:08.618Z,951.33
2019-01-30T11:40:07.072Z,951.40
2019-01-30T11:41:07.107Z,951.35
2019-01-30T11:42:07.150Z,951.29
2019-01-30T11:43:07.213Z,951.35
2019-01-30T11:44:07.264Z,951.31
2019-01-30T11:45:07.339Z,951.28
2019-01-30T11:46:07.337Z,951.35
2019-01-30T11:47:07.376Z,951.30
2019-01-30T11:48:07.413Z,951.32
2019-01-30T11:49:07.489Z,951.47
2019-01-30T11:50:07.505Z,951.51
2019-01-30T11:51:07.545Z,951.39
2019-01-30T11:52:07.702Z,951.33
2019-01-30T11:53:07.637Z,951.39
2019-01-30T11:54:07.702Z,951.47
2019-01-30T11:55:07.718Z,951.42
2019-01-30T11:56:07.763Z,951.57
2019-01-30T11:57:07.809Z,951.61
2019-01-30T11:58:07.858Z,951.48
2019-01-30T11:59:07.980Z,951.57
2019-01-30T12:00:07.953Z,951.57
2019-01-30T12:01:07.983Z,951.55
2019-01-30T12:02:08.046Z,951.61
2019-01-30T12:03:08.071Z,951.57
2019-01-30T12:04:17.504Z,951.56
2019-01-30T12:05:08.157Z,951.72
2019-01-30T12:06:08.206Z,951.57
2019-01-30T12:07:08.244Z,951.65
2019-01-30T12:08:08.300Z,951.64
2019-01-30T12:09:08.353Z,951.65
2019-01-30T12:10:08.374Z,951.76
2019-01-30T12:11:08.420Z,951.73
2019-01-30T12:12:09.625Z,951.93
2019-01-30T12:13:09.117Z,951.81
2019-01-30T12:14:08.568Z,951.78
2019-01-30T12:15:08.590Z,951.76
2019-01-30T12:16:08.661Z,951.83
2019-01-30T12:17:08.684Z,951.96
2019-01-30T12:18:08.732Z,951.88
2019-01-30T12:19:08.774Z,951.87
2019-01-30T12:20:08.820Z,952.01
2019-01-30T12:21:08.845Z,952.01
2019-01-30T12:22:08.935Z,951.91
2019-01-30T12:23:08.929Z,951.93
2019-01-30T12:24:08.984Z,951.90
2019-01-30T12:25:09.040Z,951.90
2019-01-30T12:26:09.088Z,951.93
2019-01-30T12:27:09.618Z,951.90
2019-01-30T12:28:09.163Z,951.94
2019-01-30T12:29:09.226Z,951.87